createdAt,value
2022-11-27T00:00:31.119Z,14.10
2022-11-27T00:02:58.020Z,8.65
2022-11-27T00:05:24.821Z,12.52
2022-11-27T00:07:52.303Z,15.23
2022-11-27T00:10:19.191Z,20.52
2022-11-27T00:12:45.928Z,11.35
2022-11-27T00:15:17.080Z,15.68
2022-11-27T00:17:44.234Z,14.27
2022-11-27T00:20:11.385Z,11.70
2022-11-27T00:22:38.155Z,15.63
2022-11-27T00:25:05.312Z,10.95
2022-11-27T00:27:32.092Z,14.68
2022-11-27T00:29:58.877Z,14.63
2022-11-27T00:32:25.646Z,9.15
2022-11-27T00:34:52.384Z,12.23
2022-11-27T00:37:19.271Z,11.23
2022-11-27T00:39:47.584Z,11.35
2022-11-27T00:42:14.382Z,15.95
2022-11-27T00:44:41.241Z,10.77
2022-11-27T00:47:08.257Z,11.65
2022-11-27T00:49:35.026Z,12.38
2022-11-27T00:52:01.759Z,11.75
2022-11-27T00:54:28.515Z,12.35
2022-11-27T00:56:55.424Z,13.07
2022-11-27T00:59:22.196Z,15.00
2022-11-27T01:01:49.314Z,10.70
2022-11-27T01:04:16.747Z,16.70
2022-11-27T01:06:44.554Z,18.67
2022-11-27T01:09:13.105Z,15.15
2022-11-27T01:11:40.245Z,13.95
2022-11-27T01:14:11.457Z,11.70
2022-11-27T01:16:42.732Z,12.57
2022-11-27T01:19:11.717Z,13.70
2022-11-27T01:21:38.459Z,14.25
2022-11-27T01:24:05.728Z,15.65
2022-11-27T01:26:32.577Z,13.20
2022-11-27T01:28:59.820Z,8.85
2022-11-27T01:31:29.540Z,14.30
2022-11-27T01:33:59.708Z,11.55
2022-11-27T01:36:27.125Z,14.20
2022-11-27T01:38:54.685Z,13.77
2022-11-27T01:41:27.802Z,11.70
2022-11-27T01:44:00.207Z,14.43
2022-11-27T01:46:54.624Z,10.48
2022-11-27T01:49:35.879Z,17.52
2022-11-27T01:52:16.787Z,12.30
2022-11-27T01:55:06.591Z,11.82
2022-11-27T01:57:59.045Z,16.45
2022-11-27T02:00:26.047Z,13.50
2022-11-27T02:02:53.061Z,16.85
2022-11-27T02:05:23.060Z,16.65
2022-11-27T02:07:51.870Z,14.60
2022-11-27T02:10:19.391Z,18.63
2022-11-27T02:13:01.504Z,20.52
2022-11-27T02:16:01.634Z,14.48
2022-11-27T02:18:50.006Z,18.40
2022-11-27T02:21:51.154Z,15.90
2022-11-27T02:24:26.965Z,15.07
2022-11-27T02:27:24.809Z,20.48
2022-11-27T02:29:55.897Z,14.93
2022-11-27T02:33:02.103Z,12.55
2022-11-27T02:35:54.226Z,16.02
2022-11-27T02:38:30.131Z,19.65
2022-11-27T02:41:00.932Z,21.25
2022-11-27T02:43:33.141Z,15.25
2022-11-27T02:46:02.720Z,15.68
2022-11-27T02:48:56.781Z,17.92
2022-11-27T02:51:27.801Z,18.73
2022-11-27T02:53:59.028Z,12.48
2022-11-27T02:56:28.643Z,16.05
2022-11-27T02:59:02.630Z,25.63
2022-11-27T03:01:34.840Z,17.00
2022-11-27T03:04:04.106Z,15.25
2022-11-27T03:06:40.761Z,21.30
2022-11-27T03:09:10.941Z,20.52
2022-11-27T03:11:37.924Z,17.52
2022-11-27T03:14:07.839Z,17.65
2022-11-27T03:16:49.879Z,18.15
2022-11-27T03:19:38.481Z,15.77
2022-11-27T03:22:05.928Z,19.33
2022-11-27T03:24:35.514Z,18.85
2022-11-27T03:27:03.941Z,22.55
2022-11-27T03:29:56.924Z,19.73
2022-11-27T03:32:25.853Z,22.90
2022-11-27T03:34:53.089Z,15.93
2022-11-27T03:37:20.291Z,19.42
2022-11-27T03:39:47.282Z,20.88
2022-11-27T03:42:26.360Z,21.98
2022-11-27T03:45:13.824Z,18.90
2022-11-27T03:48:02.751Z,19.15
2022-11-27T03:51:01.936Z,20.35
2022-11-27T03:53:36.049Z,19.05
2022-11-27T03:58:44.437Z,22.38
2022-11-27T04:01:14.465Z,19.75
2022-11-27T04:03:41.220Z,18.67
2022-11-27T04:06:08.682Z,18.05
2022-11-27T04:08:35.427Z,23.80
2022-11-27T04:11:02.197Z,25.65
2022-11-27T04:13:29.199Z,19.95
2022-11-27T04:15:56.051Z,21.98
2022-11-27T04:18:22.816Z,17.17
2022-11-27T04:20:49.569Z,17.38
2022-11-27T04:23:16.308Z,18.10
2022-11-27T04:25:43.080Z,20.48
2022-11-27T04:28:09.858Z,19.42
2022-11-27T04:30:36.956Z,20.65
2022-11-27T04:33:04.043Z,19.15
2022-11-27T04:35:30.815Z,20.67
2022-11-27T04:37:58.248Z,21.55
2022-11-27T04:40:25.184Z,19.67
2022-11-27T04:42:52.144Z,17.98
2022-11-27T04:45:19.031Z,17.15
2022-11-27T04:47:45.732Z,21.23
2022-11-27T04:50:12.423Z,19.90
2022-11-27T04:52:40.479Z,18.90
2022-11-27T04:55:09.005Z,16.42
2022-11-27T04:57:36.017Z,18.10
2022-11-27T05:00:04.933Z,20.48
2022-11-27T05:02:32.987Z,17.88
2022-11-27T05:04:59.827Z,17.60
2022-11-27T05:07:27.639Z,16.27
2022-11-27T05:09:54.449Z,17.55
2022-11-27T05:12:21.276Z,23.00
2022-11-27T05:14:48.003Z,15.05
2022-11-27T05:17:14.847Z,19.85
2022-11-27T05:19:41.588Z,15.10
2022-11-27T05:22:08.347Z,15.88
2022-11-27T05:24:35.077Z,20.10
2022-11-27T05:27:01.821Z,19.27
2022-11-27T05:29:29.929Z,14.30
2022-11-27T05:31:56.745Z,19.65
2022-11-27T05:34:23.616Z,16.55
2022-11-27T05:36:50.570Z,17.90
2022-11-27T05:39:17.386Z,18.17
2022-11-27T05:41:44.156Z,15.10
2022-11-27T05:44:13.762Z,20.65
2022-11-27T05:46:41.127Z,13.13
2022-11-27T05:49:08.029Z,14.98
2022-11-27T05:51:34.767Z,15.75
2022-11-27T05:54:01.588Z,17.77
2022-11-27T05:56:28.464Z,16.20
2022-11-27T05:58:55.254Z,16.52
2022-11-27T06:01:22.024Z,17.30
2022-11-27T06:03:49.013Z,13.77
2022-11-27T06:06:19.361Z,14.88
2022-11-27T06:08:46.748Z,13.68
2022-11-27T06:11:19.016Z,15.82
2022-11-27T06:13:46.780Z,14.75
2022-11-27T06:16:20.019Z,15.98
2022-11-27T06:18:50.286Z,14.05
2022-11-27T06:21:17.765Z,15.63
2022-11-27T06:23:44.740Z,15.07
2022-11-27T06:26:20.791Z,12.10
2022-11-27T06:28:48.492Z,11.35
2022-11-27T06:31:18.927Z,13.50
2022-11-27T06:33:50.301Z,14.80
2022-11-27T06:36:19.876Z,16.70
2022-11-27T06:38:47.545Z,11.30
2022-11-27T06:41:21.524Z,15.15
2022-11-27T06:43:48.718Z,12.27
2022-11-27T06:46:18.337Z,13.45
2022-11-27T06:48:48.837Z,10.00
2022-11-27T06:51:19.353Z,14.95
2022-11-27T06:53:47.579Z,13.95
2022-11-27T06:56:17.539Z,12.07
2022-11-27T06:58:45.022Z,14.15
2022-11-27T07:01:17.075Z,10.85
2022-11-27T07:03:44.871Z,10.07
2022-11-27T07:06:15.248Z,10.20
2022-11-27T07:08:42.654Z,14.07
2022-11-27T07:11:15.788Z,14.38
2022-11-27T07:13:42.542Z,12.33
2022-11-27T07:16:10.983Z,9.40
2022-11-27T07:18:41.165Z,9.40
2022-11-27T07:21:08.575Z,11.23
2022-11-27T07:23:36.063Z,12.85
2022-11-27T07:26:13.740Z,10.57
2022-11-27T07:28:43.833Z,11.00
2022-11-27T07:31:12.498Z,9.25
2022-11-27T07:33:39.602Z,8.18
2022-11-27T07:36:08.844Z,11.18
2022-11-27T07:38:35.661Z,8.75
2022-11-27T07:41:04.105Z,10.38
2022-11-27T07:43:32.996Z,12.55
2022-11-27T07:46:04.182Z,14.85
2022-11-27T07:48:31.058Z,9.38
2022-11-27T07:50:59.393Z,9.75
2022-11-27T07:53:26.297Z,8.02
2022-11-27T07:55:53.292Z,9.73
2022-11-27T07:58:20.053Z,9.73
2022-11-27T08:00:48.516Z,12.35
2022-11-27T08:03:16.989Z,13.30
2022-11-27T08:05:43.986Z,18.00
2022-11-27T08:08:10.770Z,12.80
2022-11-27T08:10:39.929Z,10.13
2022-11-27T08:13:14.501Z,11.15
2022-11-27T08:15:42.554Z,8.95
2022-11-27T08:18:09.310Z,10.35
2022-11-27T08:20:36.160Z,11.48
2022-11-27T08:23:03.392Z,12.35
2022-11-27T08:25:30.784Z,10.98
2022-11-27T08:27:57.582Z,11.88
2022-11-27T08:30:24.337Z,8.95
2022-11-27T08:32:51.181Z,10.95
2022-11-27T08:35:18.096Z,10.38
2022-11-27T08:37:48.711Z,11.68
2022-11-27T08:40:16.503Z,13.30
2022-11-27T08:42:43.249Z,10.65
2022-11-27T08:45:10.634Z,12.50
2022-11-27T08:47:37.403Z,12.23
2022-11-27T08:50:04.388Z,9.38
2022-11-27T08:52:32.257Z,11.00
2022-11-27T08:54:59.209Z,10.23
2022-11-27T08:57:26.108Z,9.60
2022-11-27T08:59:52.955Z,10.02
2022-11-27T09:02:19.713Z,9.43
2022-11-27T09:04:46.466Z,10.68
2022-11-27T09:07:15.850Z,9.63
2022-11-27T09:09:43.047Z,9.32
2022-11-27T09:12:09.860Z,10.45
2022-11-27T09:14:36.685Z,10.32
2022-11-27T09:17:03.690Z,7.95
2022-11-27T09:19:30.559Z,9.10
2022-11-27T09:21:59.699Z,8.05
2022-11-27T09:24:36.808Z,9.45
2022-11-27T09:27:03.591Z,15.18
2022-11-27T09:29:30.426Z,14.05
2022-11-27T09:31:57.227Z,11.52
2022-11-27T09:34:24.023Z,10.13
2022-11-27T09:36:50.852Z,10.52
2022-11-27T09:39:22.851Z,8.63
2022-11-27T09:41:53.623Z,15.57
2022-11-27T09:44:35.080Z,10.38
2022-11-27T09:47:27.323Z,14.45
2022-11-27T09:50:13.252Z,13.88
2022-11-27T09:52:58.288Z,11.07
2022-11-27T09:55:28.642Z,13.65
2022-11-27T09:58:02.612Z,10.77
2022-11-27T10:00:29.571Z,10.93
2022-11-27T10:02:58.379Z,10.65
2022-11-27T10:05:43.649Z,10.13
2022-11-27T10:08:35.826Z,12.85
2022-11-27T10:11:25.531Z,10.43
2022-11-27T10:14:22.394Z,10.02
2022-11-27T10:17:02.561Z,9.15
2022-11-27T10:19:54.614Z,9.07
2022-11-27T10:22:30.791Z,9.63
2022-11-27T10:25:38.859Z,10.25
2022-11-27T10:28:36.623Z,10.18
2022-11-27T10:31:19.832Z,10.77
2022-11-27T10:33:54.880Z,8.73
2022-11-27T10:36:43.544Z,9.82
2022-11-27T10:39:19.076Z,8.48
2022-11-27T10:42:13.492Z,8.60
2022-11-27T10:44:55.053Z,7.43
2022-11-27T10:47:24.157Z,9.63
2022-11-27T10:49:51.118Z,10.65
2022-11-27T10:52:19.486Z,8.25
2022-11-27T10:54:53.105Z,11.15
2022-11-27T10:57:37.664Z,10.70
2022-11-27T11:00:19.017Z,11.45
2022-11-27T11:02:46.367Z,8.55
2022-11-27T11:05:37.634Z,11.15
2022-11-27T11:08:19.199Z,8.18
2022-11-27T11:10:57.876Z,12.70
2022-11-27T11:13:30.215Z,8.25
2022-11-27T11:16:16.682Z,7.85
2022-11-27T11:18:49.766Z,10.05
2022-11-27T11:21:28.024Z,9.27
2022-11-27T11:24:02.134Z,7.03
2022-11-27T11:28:59.463Z,6.88
2022-11-27T11:31:33.951Z,4.50
2022-11-27T11:34:19.595Z,5.97
2022-11-27T11:37:09.223Z,6.43
2022-11-27T11:39:44.806Z,5.72
2022-11-27T11:42:22.879Z,5.35
2022-11-27T11:45:14.738Z,7.00
2022-11-27T11:47:50.193Z,5.65
2022-11-27T11:50:36.073Z,9.23
2022-11-27T11:53:15.389Z,6.85
2022-11-27T11:56:20.836Z,5.55
2022-11-27T11:59:00.470Z,6.32
2022-11-27T12:01:39.342Z,6.18
2022-11-27T12:04:21.423Z,7.88
2022-11-27T12:07:20.026Z,5.93
2022-11-27T12:10:04.171Z,6.30
2022-11-27T12:12:52.294Z,6.93
2022-11-27T12:15:49.986Z,7.28
2022-11-27T12:18:48.115Z,7.28
2022-11-27T12:21:18.413Z,6.07
2022-11-27T12:24:08.238Z,7.25
2022-11-27T12:26:51.628Z,7.28
2022-11-27T12:29:28.705Z,5.05
2022-11-27T12:31:56.554Z,7.90
2022-11-27T12:34:54.965Z,7.00
2022-11-27T12:37:52.546Z,6.75
2022-11-27T12:40:35.187Z,6.85
2022-11-27T12:43:05.207Z,5.80
2022-11-27T12:46:11.743Z,6.78
2022-11-27T12:48:48.174Z,6.72
2022-11-27T12:51:28.185Z,7.13
2022-11-27T12:54:05.460Z,7.63
2022-11-27T12:56:50.968Z,7.50
2022-11-27T12:59:35.091Z,5.45
2022-11-27T13:02:27.695Z,5.53
2022-11-27T13:05:01.383Z,5.05
2022-11-27T13:07:40.199Z,6.22
2022-11-27T13:13:21.074Z,7.22
2022-11-27T13:15:57.834Z,5.28
2022-11-27T13:18:38.475Z,7.88
2022-11-27T13:21:13.576Z,9.63
2022-11-27T13:23:41.761Z,6.88
2022-11-27T13:26:26.320Z,5.88
2022-11-27T13:28:58.262Z,8.57
2022-11-27T13:31:30.327Z,5.82
2022-11-27T13:34:04.831Z,8.25
2022-11-27T13:36:48.168Z,7.68
2022-11-27T13:39:29.752Z,10.73
2022-11-27T13:42:21.276Z,8.80
2022-11-27T13:45:05.154Z,8.20
2022-11-27T13:47:42.727Z,9.82
2022-11-27T13:50:16.123Z,7.88
2022-11-27T13:53:07.479Z,10.07
2022-11-27T13:55:37.964Z,13.32
2022-11-27T13:58:06.364Z,7.63
2022-11-27T14:00:39.816Z,10.40
2022-11-27T14:03:10.633Z,9.55
2022-11-27T14:05:42.823Z,9.90
2022-11-27T14:08:22.973Z,8.63
2022-11-27T14:10:59.295Z,8.20
2022-11-27T14:14:23.037Z,8.30
2022-11-27T14:17:04.418Z,7.22
2022-11-27T14:19:34.733Z,9.57
2022-11-27T14:22:13.419Z,8.45
2022-11-27T14:24:44.312Z,8.68
2022-11-27T14:27:20.609Z,10.00
2022-11-27T14:29:48.730Z,10.30
2022-11-27T14:32:17.146Z,9.18
2022-11-27T14:34:44.497Z,10.13
2022-11-27T14:37:25.789Z,9.48
2022-11-27T14:39:53.142Z,11.00
2022-11-27T14:42:29.043Z,9.02
2022-11-27T14:45:08.608Z,9.95
2022-11-27T14:47:35.845Z,11.80
2022-11-27T14:50:04.082Z,10.38
2022-11-27T14:52:32.601Z,9.25
2022-11-27T14:55:00.634Z,7.68
2022-11-27T14:57:30.242Z,10.85
2022-11-27T15:00:29.737Z,10.90
2022-11-27T15:03:08.632Z,10.40
2022-11-27T15:05:38.252Z,9.55
2022-11-27T15:08:09.890Z,11.40
2022-11-27T15:10:39.660Z,8.82
2022-11-27T15:13:08.784Z,10.20
2022-11-27T15:15:42.001Z,9.80
2022-11-27T15:18:09.992Z,13.90
2022-11-27T15:20:46.344Z,8.00
2022-11-27T15:23:24.863Z,11.18
2022-11-27T15:26:14.271Z,11.73
2022-11-27T15:28:50.551Z,9.77
2022-11-27T15:31:39.051Z,12.27
2022-11-27T15:34:16.105Z,10.20
2022-11-27T15:36:56.980Z,12.50
2022-11-27T15:39:27.478Z,9.27
2022-11-27T15:42:00.333Z,12.45
2022-11-27T15:44:32.133Z,10.27
2022-11-27T15:47:02.243Z,9.60
2022-11-27T15:49:29.622Z,11.55
2022-11-27T15:51:58.150Z,10.75
2022-11-27T15:54:25.729Z,11.35
2022-11-27T15:56:52.643Z,12.60
2022-11-27T15:59:20.980Z,12.82
2022-11-27T16:01:49.763Z,9.95
2022-11-27T16:04:17.225Z,10.18
2022-11-27T16:06:44.048Z,13.05
2022-11-27T16:09:10.715Z,11.82
2022-11-27T16:11:37.575Z,10.90
2022-11-27T16:14:04.588Z,10.82
2022-11-27T16:16:31.725Z,11.90
2022-11-27T16:19:01.003Z,11.80
2022-11-27T16:21:30.141Z,10.90
2022-11-27T16:23:58.952Z,12.25
2022-11-27T16:26:28.090Z,13.07
2022-11-27T16:28:55.184Z,12.98
2022-11-27T16:31:23.539Z,14.05
2022-11-27T16:33:51.137Z,11.02
2022-11-27T16:36:20.913Z,12.93
2022-11-27T16:38:48.861Z,11.20
2022-11-27T16:41:18.096Z,14.30
2022-11-27T16:43:48.269Z,12.48
2022-11-27T16:46:19.690Z,12.50
2022-11-27T16:48:47.776Z,11.00
2022-11-27T16:51:16.003Z,11.77
2022-11-27T16:53:44.885Z,11.43
2022-11-27T16:56:13.677Z,12.45
2022-11-27T16:58:44.525Z,10.80
2022-11-27T17:01:28.706Z,12.30
2022-11-27T17:03:56.112Z,14.02
2022-11-27T17:06:29.356Z,13.52
2022-11-27T17:08:57.657Z,9.73
2022-11-27T17:11:27.349Z,14.85
2022-11-27T17:13:58.013Z,11.07
2022-11-27T17:16:24.985Z,14.30
2022-11-27T17:18:51.836Z,12.63
2022-11-27T17:21:26.387Z,11.68
2022-11-27T17:23:58.628Z,12.18
2022-11-27T17:26:28.499Z,15.27
2022-11-27T17:28:56.362Z,13.18
2022-11-27T17:31:30.947Z,14.48
2022-11-27T17:33:58.056Z,11.02
2022-11-27T17:36:26.224Z,13.88
2022-11-27T17:38:56.233Z,13.50
2022-11-27T17:41:26.246Z,12.35
2022-11-27T17:43:53.235Z,11.60
2022-11-27T17:46:25.723Z,19.92
2022-11-27T17:48:54.413Z,11.85
2022-11-27T17:51:22.500Z,14.27
2022-11-27T17:53:49.859Z,12.75
2022-11-27T17:56:19.021Z,14.88
2022-11-27T17:58:46.455Z,14.48
2022-11-27T18:01:19.721Z,14.13
2022-11-27T18:03:47.068Z,14.60
2022-11-27T18:06:15.758Z,15.18
2022-11-27T18:08:44.761Z,20.92
2022-11-27T18:11:17.353Z,15.40
2022-11-27T18:13:44.427Z,17.80
2022-11-27T18:16:15.384Z,14.73
2022-11-27T18:18:44.098Z,15.98
2022-11-27T18:21:18.511Z,17.73
2022-11-27T18:24:20.649Z,17.95
2022-11-27T18:29:22.353Z,16.40
2022-11-27T18:31:51.068Z,15.38
2022-11-27T18:34:18.330Z,18.13
2022-11-27T18:36:46.019Z,15.85
2022-11-27T18:39:13.047Z,20.13
2022-11-27T18:41:40.771Z,15.60
2022-11-27T18:44:07.790Z,13.07
2022-11-27T18:46:34.803Z,21.30
2022-11-27T18:49:01.775Z,15.75
2022-11-27T18:51:30.181Z,15.05
2022-11-27T18:53:57.141Z,19.05
2022-11-27T18:56:29.454Z,14.60
2022-11-27T18:59:00.509Z,16.75
2022-11-27T19:01:29.483Z,14.52
2022-11-27T19:03:59.125Z,13.98
2022-11-27T19:06:30.116Z,15.70
2022-11-27T19:08:59.529Z,15.38
2022-11-27T19:11:32.839Z,18.98
2022-11-27T19:14:01.120Z,19.08
2022-11-27T19:16:31.659Z,14.50
2022-11-27T19:19:03.452Z,17.27
2022-11-27T19:21:34.637Z,16.60
2022-11-27T19:24:03.501Z,24.27
2022-11-27T19:26:35.244Z,19.70
2022-11-27T19:29:05.693Z,18.35
2022-11-27T19:31:37.734Z,15.38
2022-11-27T19:34:08.354Z,20.58
2022-11-27T19:36:36.164Z,16.27
2022-11-27T19:39:10.987Z,15.15
2022-11-27T19:41:38.860Z,15.65
2022-11-27T19:44:06.392Z,16.33
2022-11-27T19:46:37.203Z,15.43
2022-11-27T19:49:13.187Z,14.90
2022-11-27T19:51:40.955Z,16.50
2022-11-27T19:54:10.221Z,16.10
2022-11-27T19:56:42.364Z,17.45
2022-11-27T19:59:10.135Z,16.65
2022-11-27T20:01:38.178Z,18.88
2022-11-27T20:04:06.046Z,17.67
2022-11-27T20:06:32.800Z,18.60
2022-11-27T20:09:01.659Z,16.20
2022-11-27T20:11:34.631Z,18.60
2022-11-27T20:14:04.528Z,16.63
2022-11-27T20:16:32.104Z,15.57
2022-11-27T20:18:59.008Z,14.57
2022-11-27T20:21:26.390Z,16.08
2022-11-27T20:23:54.802Z,14.25
2022-11-27T20:26:26.484Z,13.20
2022-11-27T20:28:54.281Z,18.60
2022-11-27T20:31:25.874Z,14.05
2022-11-27T20:33:55.390Z,15.73
2022-11-27T20:36:24.635Z,14.02
2022-11-27T20:38:52.532Z,17.17
2022-11-27T20:41:21.403Z,16.40
2022-11-27T20:43:53.268Z,11.25
2022-11-27T20:46:20.263Z,14.35
2022-11-27T20:48:47.924Z,13.40
2022-11-27T20:51:17.733Z,11.93
2022-11-27T20:53:46.788Z,15.85
2022-11-27T20:56:15.996Z,13.10
2022-11-27T20:58:44.110Z,15.02
2022-11-27T21:01:30.831Z,16.92
2022-11-27T21:03:59.366Z,12.55
2022-11-27T21:06:30.100Z,14.68
2022-11-27T21:09:01.089Z,15.77
2022-11-27T21:11:29.560Z,15.10
2022-11-27T21:14:06.174Z,20.55
2022-11-27T21:16:36.008Z,15.75
2022-11-27T21:19:06.627Z,13.43
2022-11-27T21:21:35.855Z,14.38
2022-11-27T21:24:02.573Z,12.15
2022-11-27T21:26:31.900Z,17.20
2022-11-27T21:28:58.711Z,13.00
2022-11-27T21:31:27.794Z,12.77
2022-11-27T21:33:56.987Z,14.60
2022-11-27T21:36:27.815Z,12.20
2022-11-27T21:38:54.935Z,14.88
2022-11-27T21:41:22.883Z,10.90
2022-11-27T21:43:53.491Z,14.50
2022-11-27T21:46:22.661Z,12.70
2022-11-27T21:48:52.094Z,13.45
2022-11-27T21:51:21.520Z,14.43
2022-11-27T21:53:50.413Z,13.32
2022-11-27T21:56:20.351Z,14.85
2022-11-27T21:58:48.361Z,10.85
2022-11-27T22:01:17.892Z,16.30
2022-11-27T22:03:45.012Z,13.15
2022-11-27T22:06:14.684Z,13.45
2022-11-27T22:08:43.667Z,12.55
2022-11-27T22:11:14.115Z,11.98
2022-11-27T22:13:42.029Z,11.90
2022-11-27T22:16:18.827Z,14.50
2022-11-27T22:18:46.338Z,9.65
2022-11-27T22:21:14.311Z,14.32
2022-11-27T22:23:45.220Z,12.50
2022-11-27T22:26:17.160Z,13.13
2022-11-27T22:28:46.833Z,11.20
2022-11-27T22:31:21.749Z,13.63
2022-11-27T22:33:49.100Z,11.00
2022-11-27T22:36:17.586Z,14.20
2022-11-27T22:38:45.909Z,12.35
2022-11-27T22:41:13.519Z,15.85
2022-11-27T22:43:41.203Z,13.13
2022-11-27T22:46:16.457Z,11.93
2022-11-27T22:48:45.962Z,12.63
2022-11-27T22:51:13.114Z,12.65
2022-11-27T22:53:40.640Z,11.23
2022-11-27T22:56:09.986Z,12.32
2022-11-27T22:58:41.124Z,11.27
2022-11-27T23:01:13.544Z,10.90
2022-11-27T23:03:41.026Z,10.63
2022-11-27T23:06:12.023Z,10.68
2022-11-27T23:08:43.931Z,12.38
2022-11-27T23:11:19.102Z,13.35
2022-11-27T23:13:49.642Z,13.55
2022-11-27T23:16:18.139Z,11.10
2022-11-27T23:18:45.117Z,11.80
2022-11-27T23:21:17.671Z,14.18
2022-11-27T23:23:45.373Z,12.45
2022-11-27T23:26:18.174Z,14.85
2022-11-27T23:28:46.480Z,11.67
2022-11-27T23:31:30.047Z,10.95
2022-11-27T23:33:58.805Z,16.65
2022-11-27T23:36:25.916Z,13.07
2022-11-27T23:38:52.955Z,12.02
2022-11-27T23:41:22.418Z,13.90
2022-11-27T23:43:49.989Z,9.27
2022-11-27T23:46:18.591Z,12.82
2022-11-27T23:48:46.009Z,14.45
2022-11-27T23:51:15.728Z,14.45
2022-11-27T23:53:42.513Z,13.98
2022-11-27T23:56:12.361Z,13.25
2022-11-27T23:58:45.218Z,9.75
